Latest Weather Observations for Coober Pedy Airport

IDS60801

Issued at 1:35 am CDT Sunday 26 October 2014 (issued every 30 minutes, with the page automatically refreshed every 10 minutes)

About weather observations | Map of weather stations | Latest weather observations for SA | Other Formats
Station Details ID: 016090 Name: COOBER PEDY AIRPORT Lat: -29.03 Lon: 134.72 Height: 225.0 m
Data from the previous 72 hours. | See also: Recent months at Coober Pedy Airport
Date/Time
CDT
Temp
°C
App
Temp
°C
Dew
Point
Rel
Hum
%
Delta-T
°C
Wind Press
QNH
hPa
Press
MSL
hPa
Rain
since 9 am
mm
Dir
 
Spd
km/h
Gust
km/h
Spd
kts
Gust
kts
26/01:30am 31.2 26.4 2.4 16 14.6 SE 17 20 9 11 1013.4 1012.6 0.0
26/01:00am 32.4 25.9 2.5 15 15.3 SSE 26 33 14 18 1013.6 1012.8 0.0
26/12:30am 32.4 25.8 4.2 17 14.8 SSW 28 33 15 18 1014.1 1013.3 0.0
26/12:00am 31.8 27.1 2.9 16 14.8 SW 17 17 9 9 1014.9 1014.1 0.0
 
Date/Time
CDT
Temp
°C
App
Temp
°C
Dew
Point
Rel
Hum
%
Delta-T
°C
Wind Press
QNH
hPa
Press
MSL
hPa
Rain
since 9 am
mm
Dir
 
Spd
km/h
Gust
km/h
Spd
kts
Gust
kts
25/11:30pm 32.2 26.0 2.3 15 15.2 W 24 35 13 19 1015.1 1014.3 0.0
25/11:25pm 32.3 25.4 2.4 15 15.3 W 28 35 15 19 1015.0 1014.2 0.0
25/11:00pm 29.4 25.2 1.8 17 13.7 ESE 13 15 7 8 1014.2 1013.4 0.0
25/10:30pm 30.4 26.2 1.8 16 14.3 SE 13 15 7 8 1014.3 1013.5 0.0
25/10:00pm 31.3 27.1 1.6 15 14.9 SE 13 15 7 8 1014.3 1013.5 0.0
25/09:30pm 32.9 28.4 1.9 14 15.7 SE 15 19 8 10 1014.1 1013.3 0.0
25/09:00pm 33.8 28.8 1.6 13 16.4 SSE 17 17 9 9 1013.8 1013.0 0.0
25/08:30pm 34.8 30.5 1.2 12 17.1 SSE 13 15 7 8 1013.6 1012.8 0.0
25/08:00pm 36.0 31.7 0.9 11 17.9 SSE 13 15 7 8 1013.3 1012.5 0.0
25/07:30pm 37.2 34.0 0.5 10 18.7 SE 7 11 4 6 1012.9 1012.0 0.0
25/07:00pm 37.9 34.0 1.0 10 19.0 S 11 17 6 9 1012.8 1011.9 0.0
25/06:30pm 38.1 34.6 1.2 10 19.1 SE 9 17 5 9 1012.6 1011.8 0.0
25/06:00pm 38.6 36.1 1.6 10 19.3 WNW 4 11 2 6 1012.6 1011.8 0.0
25/05:30pm 39.1 35.3 1.9 10 19.6 W 11 20 6 11 1012.9 1012.0 0.0
25/05:00pm 38.3 34.4 1.3 10 19.2 S 11 17 6 9 1013.0 1012.2 0.0
25/04:30pm 38.4 34.5 1.4 10 19.3 SW 11 19 6 10 1013.4 1012.6 0.0
25/04:00pm 38.6 35.5 1.6 10 19.3 SW 7 15 4 8 1013.8 1013.0 0.0
25/03:30pm 38.3 35.0 2.7 11 18.9 SE 9 19 5 10 1014.2 1013.4 0.0
25/03:00pm 37.6 34.8 2.1 11 18.6 NNE 6 15 3 8 1014.7 1013.9 0.0
25/02:30pm 37.1 33.1 3.0 12 18.0 SSE 13 17 7 9 1015.1 1014.3 0.0
25/02:00pm 36.0 33.6 4.3 14 17.0 S 6 11 3 6 1015.6 1014.8 0.0
25/01:30pm 35.2 32.1 3.7 14 16.7 ESE 9 13 5 7 1015.9 1015.1 0.0
25/01:00pm 35.4 31.8 4.8 15 16.5 E 13 22 7 12 1016.4 1015.6 0.0
25/12:30pm 33.9 29.8 4.6 16 15.6 SE 15 24 8 13 1016.8 1016.1 0.0
25/12:00pm 33.3 29.5 5.8 18 14.9 SE 15 22 8 12 1017.4 1016.6 0.0
25/11:30am 31.9 27.4 6.2 20 13.9 SE 19 24 10 13 1017.5 1016.7 0.0
25/11:00am 30.2 26.5 6.1 22 12.9 SE 15 20 8 11 1018.3 1017.5 0.0
25/10:30am 28.5 24.5 6.6 25 11.7 SE 17 24 9 13 1018.3 1017.5 0.0
25/10:00am 27.1 23.1 6.5 27 10.9 SSE 17 22 9 12 1018.7 1017.9 0.0
25/09:30am 26.4 21.8 6.4 28 10.5 SSE 20 26 11 14 1018.3 1017.5 0.0
25/09:00am 25.6 19.9 6.7 30 10.0 SSE 26 32 14 17 1018.1 1017.3 0.0
25/08:30am 25.2 20.2 6.4 30 9.8 SSE 22 26 12 14 1017.8 1017.0 0.0
25/08:00am 24.2 18.9 6.9 33 9.1 SSE 24 30 13 16 1017.2 1016.5 0.0
25/07:30am 23.3 19.4 7.0 35 8.5 SSE 17 20 9 11 1017.2 1016.5 0.0
25/07:00am 23.1 18.7 7.2 36 8.3 S 20 26 11 14 1016.5 1015.7 0.0
25/06:30am 23.5 19.1 7.2 35 8.6 S 20 28 11 15 1016.4 1015.6 0.0
25/06:00am 23.9 19.4 7.1 34 8.8 S 20 24 11 13 1016.2 1015.4 0.0
25/05:30am 24.5 20.6 7.2 33 9.1 S 17 22 9 12 1016.3 1015.5 0.0
25/05:00am 25.2 20.0 7.3 32 9.5 SSW 24 32 13 17 1016.4 1015.6 0.0
25/04:30am 25.6 21.2 7.2 31 9.8 S 20 26 11 14 1015.9 1015.1 0.0
25/04:00am 26.3 22.1 7.4 30 10.1 S 19 26 10 14 1015.9 1015.1 0.0
25/03:30am 27.0 22.1 6.9 28 10.7 SSW 22 32 12 17 1015.6 1014.8 0.0
25/03:00am 27.1 20.3 7.0 28 10.7 SW 32 43 17 23 1016.0 1015.2 0.0
25/02:30am 27.5 20.1 6.8 27 11.0 SW 35 43 19 23 1015.6 1014.8 0.0
25/02:11am 28.6 19.5 6.7 25 11.8 SW 44 50 24 27 1015.3 1014.5 0.0
25/02:07am 29.7 23.0 5.7 22 12.7 WSW 30 54 16 29 1015.5 1014.7 0.0
25/02:00am 32.5 26.9 3.5 16 15.1 W 22 33 12 18 1015.4 1014.6 0.0
25/01:30am 33.2 30.8 2.1 14 15.9 SW 4 13 2 7 1014.9 1014.1 0.0
25/01:00am 33.6 29.3 3.4 15 15.8 W 15 20 8 11 1015.2 1014.4 0.0
25/12:30am 33.7 28.5 2.5 14 16.1 SSW 19 24 10 13 1015.4 1014.6 0.0
25/12:00am 33.4 24.9 3.3 15 15.7 SSW 37 41 20 22 1015.8 1015.0 0.0
 
Date/Time
CDT
Temp
°C
App
Temp
°C
Dew
Point
Rel
Hum
%
Delta-T
°C
Wind Press
QNH
hPa
Press
MSL
hPa
Rain
since 9 am
mm
Dir
 
Spd
km/h
Gust
km/h
Spd
kts
Gust
kts
24/11:30pm 34.4 28.5 2.0 13 16.6 SSW 22 44 12 24 1016.5 1015.7 0.0
24/11:00pm 34.2 26.4 2.9 14 16.3 NW 33 46 18 25 1016.6 1015.8 0.0
24/10:53pm 33.8 26.1 3.6 15 15.8 WNW 33 41 18 22 1016.5 1015.7 0.0
24/10:30pm 32.8 28.4 2.8 15 15.4 WNW 15 22 8 12 1016.3 1015.5 0.0
24/10:00pm 33.2 26.7 4.9 17 15.1 WNW 28 41 15 22 1015.9 1015.1 0.0
24/09:45pm 33.6 26.3 4.3 16 15.5 W 32 57 17 31 1015.7 1014.9 0.0
24/09:30pm 34.6 28.0 2.2 13 16.7 NW 26 35 14 19 1014.9 1014.1 0.0
24/09:06pm 35.4 28.2 0.5 11 17.6 W 28 52 15 28 1014.5 1013.7 0.0
24/09:00pm 35.4 29.5 -0.8 10 17.9 WNW 20 30 11 16 1014.2 1013.4 0.0
24/08:30pm 33.8 30.2 0.5 12 16.6 N 9 15 5 8 1013.5 1012.7 0.0
24/08:00pm 34.7 29.1 -0.1 11 17.3 N 19 24 10 13 1013.1 1012.3 0.0
24/07:30pm 35.7 30.8 -0.6 10 18.0 NW 15 20 8 11 1012.9 1012.0 0.0
24/07:00pm 37.3 33.7 -2.4 8 19.3 WSW 7 11 4 6 1012.3 1011.5 0.0
24/06:30pm 37.8 32.7 -2.1 8 19.6 SW 15 20 8 11 1012.1 1011.3 0.0
24/06:00pm 38.5 33.2 -3.4 7 20.3 W 15 20 8 11 1011.9 1011.1 0.0
24/05:30pm 38.3 32.9 -1.7 8 19.8 WSW 17 24 9 13 1011.9 1011.1 0.0
24/05:00pm 38.8 32.4 -1.4 8 20.1 SW 22 30 12 16 1011.9 1011.1 0.0
24/04:30pm 39.3 34.7 -1.0 8 20.3 W 13 17 7 9 1012.0 1011.2 0.0
24/04:00pm 39.0 32.7 -1.2 8 20.2 W 22 35 12 19 1012.1 1011.3 0.0
24/03:30pm 39.6 33.9 -0.8 8 20.5 NW 19 28 10 15 1012.5 1011.7 0.0
24/03:00pm 38.6 33.2 -1.5 8 20.0 NNW 17 26 9 14 1013.0 1012.2 0.0
24/02:32pm 37.2 30.5 -0.9 9 19.0 NNW 24 35 13 19 1013.5 1012.7 0.0
24/02:30pm 37.3 27.8 -0.9 9 19.1 WNW 39 46 21 25 1013.4 1012.6 0.0
24/02:00pm 38.0 33.3 -1.9 8 19.7 NNW 13 20 7 11 1013.7 1012.9 0.0
24/01:30pm 37.6 33.8 -0.6 9 19.2 N 9 19 5 10 1013.8 1013.0 0.0
24/01:00pm 37.3 33.5 -0.9 9 19.1 N 9 17 5 9 1013.8 1013.0 0.0
24/12:30pm 36.8 31.4 -1.2 9 18.8 NNE 17 20 9 11 1014.2 1013.4 0.0
24/12:00pm 35.4 29.7 -0.8 10 17.9 NNE 19 24 10 13 1014.6 1013.8 0.0
24/11:30am 33.9 27.6 -0.7 11 16.9 NE 22 28 12 15 1014.7 1013.9 0.0
24/11:00am 32.3 25.6 1.4 14 15.5 NNE 26 32 14 17 1014.8 1014.0 0.0
24/10:30am 31.5 25.2 1.8 15 14.9 NE 24 28 13 15 1015.2 1014.4 0.0
24/10:00am 29.6 23.7 2.0 17 13.7 ESE 22 30 12 16 1014.8 1014.0 0.0
24/09:30am 29.0 20.7 2.3 18 13.3 NE 35 43 19 23 1014.7 1013.9 0.0
24/09:01am 29.1 22.2 2.4 18 13.3 E 28 46 15 25 1014.9 1014.1 0.0
24/09:00am 28.8 22.0 2.9 19 13.0 E 28 43 15 23 1015.0 1014.2 0.0
24/08:30am 28.1 21.8 3.7 21 12.4 E 26 32 14 17 1014.9 1014.1 0.0
24/08:00am 27.7 22.6 4.1 22 12.0 E 20 26 11 14 1015.2 1014.4 0.0
24/07:30am 27.6 21.8 4.6 23 11.8 E 24 28 13 15 1014.9 1014.1 0.0
24/07:00am 27.0 21.9 4.1 23 11.6 ESE 20 26 11 14 1014.9 1014.1 0.0
24/06:30am 27.2 21.5 3.0 21 12.1 ESE 22 28 12 15 1014.6 1013.8 0.0
24/06:00am 27.1 21.8 2.9 21 12.0 ESE 20 26 11 14 1014.4 1013.6 0.0
24/05:30am 26.8 21.9 4.0 23 11.5 SE 19 26 10 14 1014.2 1013.4 0.0
24/05:00am 27.1 22.1 3.6 22 11.8 SE 19 24 10 13 1013.9 1013.1 0.0
24/04:30am 27.5 22.1 4.5 23 11.8 SE 22 30 12 16 1014.0 1013.2 0.0
24/04:00am 27.3 21.9 4.4 23 11.7 SE 22 28 12 15 1014.0 1013.2 0.0
24/03:30am 27.5 22.4 3.9 22 12.0 SE 20 26 11 14 1014.1 1013.3 0.0
24/03:00am 27.9 22.9 3.6 21 12.3 SSE 19 24 10 13 1014.5 1013.7 0.0
24/02:30am 28.5 23.3 3.4 20 12.7 SE 20 26 11 14 1014.8 1014.0 0.0
24/02:00am 29.0 23.9 3.1 19 13.1 SE 19 22 10 12 1014.8 1014.0 0.0
24/01:30am 29.2 24.4 2.5 18 13.4 SSE 17 19 9 10 1015.1 1014.3 0.0
24/01:00am 29.5 25.5 2.7 18 13.5 SSE 13 15 7 8 1015.1 1014.3 0.0
24/12:30am 30.3 24.9 2.5 17 14.0 SSE 20 26 11 14 1014.9 1014.1 0.0
24/12:00am 30.6 25.7 1.9 16 14.4 SSE 17 20 9 11 1014.8 1014.0 0.0
 
Date/Time
CDT
Temp
°C
App
Temp
°C
Dew
Point
Rel
Hum
%
Delta-T
°C
Wind Press
QNH
hPa
Press
MSL
hPa
Rain
since 9 am
mm
Dir
 
Spd
km/h
Gust
km/h
Spd
kts
Gust
kts
23/11:30pm 31.4 26.5 1.7 15 14.9 SSE 17 20 9 11 1014.5 1013.7 0.0
23/11:00pm 32.0 27.0 1.2 14 15.4 SE 17 20 9 11 1014.3 1013.5 0.0
23/10:30pm 32.6 27.3 1.7 14 15.6 SE 19 24 10 13 1014.2 1013.4 0.0
23/10:00pm 32.9 26.9 0.9 13 16.0 ESE 22 26 12 14 1013.6 1012.8 0.0
23/09:30pm 33.3 27.7 1.2 13 16.2 SE 20 28 11 15 1013.3 1012.5 0.0
23/09:00pm 33.8 28.3 0.5 12 16.6 SSE 19 22 10 12 1013.4 1012.6 0.0
23/08:30pm 34.3 28.6 -0.4 11 17.1 SSE 19 20 10 11 1013.1 1012.3 0.0
23/08:00pm 34.9 28.4 0.1 11 17.4 S 24 30 13 16 1012.5 1011.7 0.0
23/07:30pm 35.6 29.3 -0.7 10 18.0 S 22 28 12 15 1012.5 1011.7 0.0
23/07:00pm 36.4 30.2 -0.1 10 18.3 S 22 28 12 15 1012.0 1011.2 0.0
23/06:30pm 37.0 31.1 -1.1 9 18.9 S 20 26 11 14 1011.9 1011.1 0.0
23/06:00pm 37.6 32.5 -2.2 8 19.5 SSW 15 22 8 12 1011.7 1010.9 0.0
23/05:30pm 37.8 31.9 -0.5 9 19.3 SSW 20 24 11 13 1011.7 1010.9 0.0
23/05:00pm 38.0 32.5 -1.9 8 19.7 W 17 28 9 15 1011.7 1010.9 0.0
23/04:30pm 37.9 33.8 -0.4 9 19.3 WSW 11 24 6 13 1011.9 1011.1 0.0
23/04:00pm 38.2 33.7 -0.2 9 19.5 W 13 26 7 14 1012.1 1011.3 0.0
23/03:30pm 37.6 31.7 -0.6 9 19.2 W 20 28 11 15 1012.5 1011.7 0.0
23/03:00pm 38.2 32.4 -0.2 9 19.5 WNW 20 30 11 16 1013.0 1012.2 0.0
23/02:30pm 36.0 30.3 -0.4 10 18.2 W 19 28 10 15 1013.5 1012.7 0.0
23/02:00pm 36.9 31.7 0.3 10 18.6 NW 17 30 9 16 1013.8 1013.0 0.0
23/01:30pm 35.3 30.3 1.6 12 17.3 N 17 22 9 12 1014.3 1013.5 0.0
23/01:00pm 34.7 30.2 2.3 13 16.7 N 15 22 8 12 1015.0 1014.2 0.0
23/12:30pm 33.3 28.9 5.0 17 15.1 NE 17 28 9 15 1015.5 1014.7 0.0
23/12:00pm 32.8 27.7 6.2 19 14.5 NE 22 32 12 17 1015.8 1015.0 0.0
23/11:30am 31.1 26.8 6.9 22 13.2 E 19 26 10 14 1016.1 1015.3 0.0
23/11:00am 29.7 25.3 7.6 25 12.1 E 20 26 11 14 1016.4 1015.6 0.0
23/10:30am 27.6 23.5 8.0 29 10.7 E 19 24 10 13 1016.7 1015.9 0.0
23/10:00am 27.3 23.1 8.2 30 10.4 E 20 24 11 13 1016.6 1015.8 0.0
23/09:30am 25.2 21.3 8.7 35 9.0 ESE 19 24 10 13 1016.8 1016.1 0.0
23/09:00am 23.0 19.1 8.7 40 7.7 SE 19 22 10 12 1016.9 1016.2 0.0
23/08:30am 22.1 18.2 9.3 44 6.9 SE 20 24 11 13 1016.9 1016.2 0.0
23/08:00am 20.5 16.9 9.7 50 5.8 SSE 19 24 10 13 1016.8 1016.1 0.0
23/07:30am 19.2 15.9 9.4 53 5.2 S 17 20 9 11 1016.9 1016.2 0.0
23/07:00am 18.9 15.6 9.4 54 5.1 SSE 17 19 9 10 1016.8 1016.1 0.0
23/06:30am 19.0 15.6 9.2 53 5.2 S 17 22 9 12 1016.6 1015.8 0.0
23/06:00am 19.8 15.9 9.4 51 5.6 SSE 20 26 11 14 1016.2 1015.4 0.0
23/05:30am 20.1 16.1 9.1 49 5.9 SSE 20 26 11 14 1016.0 1015.2 0.0
23/05:00am 20.7 16.7 9.0 47 6.3 SSE 20 26 11 14 1016.1 1015.3 0.0
23/04:30am 21.1 17.3 9.0 46 6.5 SSE 19 24 10 13 1016.1 1015.3 0.0
23/04:00am 21.6 17.5 8.5 43 7.0 SE 20 24 11 13 1016.3 1015.5 0.0
23/03:30am 22.3 18.2 8.8 42 7.2 SSE 20 26 11 14 1016.1 1015.3 0.0
23/03:00am 22.7 18.5 8.4 40 7.6 SSE 20 26 11 14 1016.3 1015.5 0.0
23/02:30am 22.8 18.6 7.4 37 8.1 SSE 19 22 10 12 1016.5 1015.7 0.0
23/02:00am 23.2 18.9 6.9 35 8.5 S 19 22 10 12 1016.7 1015.9 0.0

Other Formats:

Comma delimited format used in spreadsheet applications
http://www.bom.gov.au/fwo/IDS60801/IDS60801.95458.axf

JavaScript Object Notation format (JSON) in row-major order
http://www.bom.gov.au/fwo/IDS60801/IDS60801.95458.json